sensor_id;sensor_type;location;lat;lon;timestamp;P1;durP1;ratioP1;P2;durP2;ratioP2
56329;SDS011;42236;48.058;10.632;2022-10-23T00:02:20;1.27;;;0.90;;
56329;SDS011;42236;48.058;10.632;2022-10-23T00:05:06;2.50;;;1.00;;
56329;SDS011;42236;48.058;10.632;2022-10-23T00:07:53;1.90;;;1.10;;
56329;SDS011;42236;48.058;10.632;2022-10-23T00:10:41;1.40;;;1.10;;
56329;SDS011;42236;48.058;10.632;2022-10-23T00:13:27;4.10;;;1.17;;
56329;SDS011;42236;48.058;10.632;2022-10-23T00:16:13;1.10;;;1.00;;
56329;SDS011;42236;48.058;10.632;2022-10-23T00:18:59;1.10;;;1.00;;
56329;SDS011;42236;48.058;10.632;2022-10-23T00:21:44;1.10;;;1.00;;
56329;SDS011;42236;48.058;10.632;2022-10-23T00:24:30;1.33;;;0.97;;
56329;SDS011;42236;48.058;10.632;2022-10-23T00:27:16;1.23;;;1.13;;
56329;SDS011;42236;48.058;10.632;2022-10-23T00:30:02;1.33;;;1.10;;
56329;SDS011;42236;48.058;10.632;2022-10-23T00:32:49;1.03;;;0.93;;
56329;SDS011;42236;48.058;10.632;2022-10-23T00:35:38;2.23;;;1.00;;
56329;SDS011;42236;48.058;10.632;2022-10-23T00:38:24;1.30;;;1.00;;
56329;SDS011;42236;48.058;10.632;2022-10-23T00:41:15;1.50;;;1.20;;
56329;SDS011;42236;48.058;10.632;2022-10-23T00:44:07;1.83;;;1.30;;
56329;SDS011;42236;48.058;10.632;2022-10-23T00:47:13;1.83;;;1.47;;
56329;SDS011;42236;48.058;10.632;2022-10-23T00:49:59;1.27;;;0.90;;
56329;SDS011;42236;48.058;10.632;2022-10-23T00:52:47;1.63;;;1.00;;
56329;SDS011;42236;48.058;10.632;2022-10-23T00:55:35;0.80;;;0.80;;
56329;SDS011;42236;48.058;10.632;2022-10-23T00:58:22;1.20;;;0.90;;
56329;SDS011;42236;48.058;10.632;2022-10-23T01:01:15;1.33;;;0.80;;
56329;SDS011;42236;48.058;10.632;2022-10-23T01:04:04;2.13;;;0.70;;
56329;SDS011;42236;48.058;10.632;2022-10-23T01:06:55;0.80;;;0.73;;
56329;SDS011;42236;48.058;10.632;2022-10-23T01:09:58;2.00;;;0.70;;
56329;SDS011;42236;48.058;10.632;2022-10-23T01:13:22;2.10;;;0.70;;
56329;SDS011;42236;48.058;10.632;2022-10-23T01:16:18;6.37;;;1.10;;
56329;SDS011;42236;48.058;10.632;2022-10-23T01:22:26;1.17;;;0.90;;
56329;SDS011;42236;48.058;10.632;2022-10-23T01:25:30;1.10;;;0.90;;
56329;SDS011;42236;48.058;10.632;2022-10-23T01:28:25;2.03;;;1.10;;
56329;SDS011;42236;48.058;10.632;2022-10-23T01:31:17;1.10;;;1.00;;
56329;SDS011;42236;48.058;10.632;2022-10-23T01:34:10;3.03;;;0.70;;
56329;SDS011;42236;48.058;10.632;2022-10-23T01:37:00;1.90;;;1.00;;
56329;SDS011;42236;48.058;10.632;2022-10-23T01:39:49;0.80;;;0.80;;
56329;SDS011;42236;48.058;10.632;2022-10-23T01:42:38;0.93;;;0.80;;
56329;SDS011;42236;48.058;10.632;2022-10-23T01:45:38;2.80;;;0.80;;
56329;SDS011;42236;48.058;10.632;2022-10-23T01:48:27;3.57;;;0.70;;
56329;SDS011;42236;48.058;10.632;2022-10-23T01:51:14;0.70;;;0.70;;
56329;SDS011;42236;48.058;10.632;2022-10-23T01:54:01;1.80;;;0.70;;
56329;SDS011;42236;48.058;10.632;2022-10-23T01:56:51;3.07;;;1.00;;
56329;SDS011;42236;48.058;10.632;2022-10-23T01:59:38;1.00;;;0.80;;
56329;SDS011;42236;48.058;10.632;2022-10-23T02:02:29;1.60;;;0.93;;
56329;SDS011;42236;48.058;10.632;2022-10-23T02:05:21;0.70;;;0.70;;
56329;SDS011;42236;48.058;10.632;2022-10-23T02:08:10;1.37;;;0.90;;
56329;SDS011;42236;48.058;10.632;2022-10-23T02:11:09;2.00;;;0.90;;
56329;SDS011;42236;48.058;10.632;2022-10-23T02:14:01;0.60;;;0.60;;
56329;SDS011;42236;48.058;10.632;2022-10-23T02:16:54;1.73;;;0.73;;
56329;SDS011;42236;48.058;10.632;2022-10-23T02:19:49;1.77;;;0.90;;
56329;SDS011;42236;48.058;10.632;2022-10-23T02:22:53;0.80;;;0.80;;
56329;SDS011;42236;48.058;10.632;2022-10-23T02:25:54;1.83;;;0.90;;
56329;SDS011;42236;48.058;10.632;2022-10-23T02:28:48;1.33;;;1.17;;
56329;SDS011;42236;48.058;10.632;2022-10-23T02:31:38;1.00;;;0.90;;
56329;SDS011;42236;48.058;10.632;2022-10-23T02:34:24;1.57;;;0.97;;
56329;SDS011;42236;48.058;10.632;2022-10-23T02:37:09;1.70;;;1.33;;
56329;SDS011;42236;48.058;10.632;2022-10-23T02:39:55;2.70;;;1.80;;
56329;SDS011;42236;48.058;10.632;2022-10-23T02:42:42;2.53;;;1.50;;
56329;SDS011;42236;48.058;10.632;2022-10-23T02:45:45;1.87;;;1.00;;
56329;SDS011;42236;48.058;10.632;2022-10-23T02:55:06;2.67;;;0.90;;
56329;SDS011;42236;48.058;10.632;2022-10-23T02:58:08;0.60;;;0.50;;
56329;SDS011;42236;48.058;10.632;2022-10-23T03:01:03;1.17;;;0.70;;
56329;SDS011;42236;48.058;10.632;2022-10-23T03:03:52;0.60;;;0.60;;
56329;SDS011;42236;48.058;10.632;2022-10-23T03:06:41;0.70;;;0.70;;
56329;SDS011;42236;48.058;10.632;2022-10-23T03:09:27;0.63;;;0.63;;
56329;SDS011;42236;48.058;10.632;2022-10-23T03:12:15;0.60;;;0.60;;
56329;SDS011;42236;48.058;10.632;2022-10-23T03:15:00;0.50;;;0.50;;
56329;SDS011;42236;48.058;10.632;2022-10-23T03:17:46;1.47;;;0.57;;
56329;SDS011;42236;48.058;10.632;2022-10-23T03:20:32;2.27;;;0.60;;
56329;SDS011;42236;48.058;10.632;2022-10-23T03:23:17;2.77;;;0.50;;
56329;SDS011;42236;48.058;10.632;2022-10-23T03:26:04;0.50;;;0.50;;
56329;SDS011;42236;48.058;10.632;2022-10-23T03:28:49;2.30;;;0.40;;
56329;SDS011;42236;48.058;10.632;2022-10-23T03:31:35;0.97;;;0.70;;
56329;SDS011;42236;48.058;10.632;2022-10-23T03:34:21;3.30;;;0.50;;
56329;SDS011;42236;48.058;10.632;2022-10-23T03:37:06;1.40;;;0.60;;
56329;SDS011;42236;48.058;10.632;2022-10-23T03:39:52;0.47;;;0.47;;
56329;SDS011;42236;48.058;10.632;2022-10-23T03:42:37;3.23;;;0.50;;
56329;SDS011;42236;48.058;10.632;2022-10-23T03:45:23;0.70;;;0.70;;
56329;SDS011;42236;48.058;10.632;2022-10-23T03:48:09;1.40;;;0.37;;
56329;SDS011;42236;48.058;10.632;2022-10-23T03:50:55;1.03;;;0.40;;
56329;SDS011;42236;48.058;10.632;2022-10-23T03:53:40;0.70;;;0.50;;
56329;SDS011;42236;48.058;10.632;2022-10-23T03:56:26;1.40;;;0.50;;
56329;SDS011;42236;48.058;10.632;2022-10-23T03:59:11;1.53;;;0.43;;
56329;SDS011;42236;48.058;10.632;2022-10-23T04:01:57;0.57;;;0.50;;
56329;SDS011;42236;48.058;10.632;2022-10-23T04:04:43;1.80;;;0.60;;
56329;SDS011;42236;48.058;10.632;2022-10-23T04:07:28;0.73;;;0.50;;
56329;SDS011;42236;48.058;10.632;2022-10-23T04:10:14;0.80;;;0.50;;
56329;SDS011;42236;48.058;10.632;2022-10-23T04:12:59;3.80;;;0.67;;
56329;SDS011;42236;48.058;10.632;2022-10-23T04:15:49;2.77;;;0.40;;
56329;SDS011;42236;48.058;10.632;2022-10-23T04:18:35;2.70;;;0.40;;
56329;SDS011;42236;48.058;10.632;2022-10-23T04:21:21;1.33;;;0.40;;
56329;SDS011;42236;48.058;10.632;2022-10-23T04:24:06;1.43;;;0.47;;
56329;SDS011;42236;48.058;10.632;2022-10-23T04:26:52;0.30;;;0.30;;
56329;SDS011;42236;48.058;10.632;2022-10-23T04:29:38;4.93;;;0.47;;
56329;SDS011;42236;48.058;10.632;2022-10-23T04:32:23;1.37;;;0.73;;
56329;SDS011;42236;48.058;10.632;2022-10-23T04:35:09;2.50;;;0.60;;
56329;SDS011;42236;48.058;10.632;2022-10-23T04:37:55;1.30;;;1.20;;
56329;SDS011;42236;48.058;10.632;2022-10-23T04:40:40;0.90;;;0.90;;
56329;SDS011;42236;48.058;10.632;2022-10-23T04:43:26;2.37;;;1.30;;
56329;SDS011;42236;48.058;10.632;2022-10-23T04:46:11;2.73;;;1.60;;
56329;SDS011;42236;48.058;10.632;2022-10-23T04:48:57;4.53;;;2.40;;
56329;SDS011;42236;48.058;10.632;2022-10-23T04:51:43;7.87;;;4.57;;
56329;SDS011;42236;48.058;10.632;2022-10-23T04:54:33;4.27;;;1.93;;
56329;SDS011;42236;48.058;10.632;2022-10-23T04:57:20;1.43;;;1.27;;
56329;SDS011;42236;48.058;10.632;2022-10-23T05:00:07;1.70;;;0.90;;
56329;SDS011;42236;48.058;10.632;2022-10-23T05:02:55;0.80;;;0.80;;
56329;SDS011;42236;48.058;10.632;2022-10-23T05:05:40;1.03;;;0.90;;
56329;SDS011;42236;48.058;10.632;2022-10-23T05:08:26;7.20;;;1.43;;
56329;SDS011;42236;48.058;10.632;2022-10-23T05:11:12;1.33;;;1.07;;
56329;SDS011;42236;48.058;10.632;2022-10-23T05:13:58;1.77;;;0.90;;
56329;SDS011;42236;48.058;10.632;2022-10-23T05:16:45;1.40;;;0.80;;
56329;SDS011;42236;48.058;10.632;2022-10-23T05:19:36;2.07;;;0.73;;
56329;SDS011;42236;48.058;10.632;2022-10-23T05:22:29;2.20;;;0.80;;
56329;SDS011;42236;48.058;10.632;2022-10-23T05:25:19;2.73;;;0.90;;
56329;SDS011;42236;48.058;10.632;2022-10-23T05:28:05;1.07;;;0.80;;
56329;SDS011;42236;48.058;10.632;2022-10-23T05:30:51;0.90;;;0.90;;
56329;SDS011;42236;48.058;10.632;2022-10-23T05:33:36;0.70;;;0.60;;
56329;SDS011;42236;48.058;10.632;2022-10-23T05:36:22;1.40;;;0.80;;
56329;SDS011;42236;48.058;10.632;2022-10-23T05:39:09;1.53;;;0.70;;
56329;SDS011;42236;48.058;10.632;2022-10-23T05:41:55;0.87;;;0.77;;
56329;SDS011;42236;48.058;10.632;2022-10-23T05:44:41;2.80;;;0.77;;
56329;SDS011;42236;48.058;10.632;2022-10-23T05:47:26;0.70;;;0.70;;
56329;SDS011;42236;48.058;10.632;2022-10-23T05:50:12;1.00;;;0.90;;
56329;SDS011;42236;48.058;10.632;2022-10-23T05:52:58;4.10;;;1.07;;
56329;SDS011;42236;48.058;10.632;2022-10-23T05:55:43;1.30;;;1.20;;
56329;SDS011;42236;48.058;10.632;2022-10-23T05:58:29;1.20;;;1.10;;
56329;SDS011;42236;48.058;10.632;2022-10-23T06:01:14;2.17;;;1.10;;
56329;SDS011;42236;48.058;10.632;2022-10-23T06:04:03;1.57;;;1.10;;
56329;SDS011;42236;48.058;10.632;2022-10-23T06:06:49;1.13;;;1.00;;
56329;SDS011;42236;48.058;10.632;2022-10-23T06:09:35;1.10;;;1.00;;
56329;SDS011;42236;48.058;10.632;2022-10-23T06:12:20;0.87;;;0.87;;
56329;SDS011;42236;48.058;10.632;2022-10-23T06:15:07;1.40;;;0.97;;
56329;SDS011;42236;48.058;10.632;2022-10-23T06:17:53;1.10;;;1.00;;
56329;SDS011;42236;48.058;10.632;2022-10-23T06:20:38;1.40;;;0.93;;
56329;SDS011;42236;48.058;10.632;2022-10-23T06:23:25;0.87;;;0.70;;
56329;SDS011;42236;48.058;10.632;2022-10-23T06:26:11;0.73;;;0.73;;
56329;SDS011;42236;48.058;10.632;2022-10-23T06:28:58;0.80;;;0.80;;
56329;SDS011;42236;48.058;10.632;2022-10-23T06:31:44;3.23;;;0.90;;
56329;SDS011;42236;48.058;10.632;2022-10-23T06:34:30;2.10;;;0.63;;
56329;SDS011;42236;48.058;10.632;2022-10-23T06:37:16;2.33;;;0.80;;
56329;SDS011;42236;48.058;10.632;2022-10-23T06:40:01;1.47;;;0.77;;
56329;SDS011;42236;48.058;10.632;2022-10-23T06:42:47;1.10;;;0.80;;
56329;SDS011;42236;48.058;10.632;2022-10-23T06:45:33;1.10;;;0.80;;
56329;SDS011;42236;48.058;10.632;2022-10-23T06:48:19;1.50;;;0.90;;
56329;SDS011;42236;48.058;10.632;2022-10-23T06:51:05;4.07;;;1.50;;
56329;SDS011;42236;48.058;10.632;2022-10-23T06:53:52;4.37;;;1.30;;
56329;SDS011;42236;48.058;10.632;2022-10-23T06:56:37;0.97;;;0.80;;
56329;SDS011;42236;48.058;10.632;2022-10-23T06:59:23;1.43;;;1.00;;
56329;SDS011;42236;48.058;10.632;2022-10-23T07:02:09;5.90;;;1.93;;
56329;SDS011;42236;48.058;10.632;2022-10-23T07:04:55;6.60;;;5.17;;
56329;SDS011;42236;48.058;10.632;2022-10-23T07:07:40;4.77;;;2.80;;
56329;SDS011;42236;48.058;10.632;2022-10-23T07:10:26;2.10;;;1.37;;
56329;SDS011;42236;48.058;10.632;2022-10-23T07:13:12;4.40;;;1.77;;
56329;SDS011;42236;48.058;10.632;2022-10-23T07:15:57;3.17;;;1.43;;
56329;SDS011;42236;48.058;10.632;2022-10-23T07:18:43;3.40;;;1.60;;
56329;SDS011;42236;48.058;10.632;2022-10-23T07:21:30;1.37;;;0.80;;
56329;SDS011;42236;48.058;10.632;2022-10-23T07:24:16;0.70;;;0.70;;
56329;SDS011;42236;48.058;10.632;2022-10-23T07:27:03;1.93;;;1.10;;
56329;SDS011;42236;48.058;10.632;2022-10-23T07:29:49;1.63;;;1.27;;
56329;SDS011;42236;48.058;10.632;2022-10-23T07:32:35;1.57;;;1.00;;
56329;SDS011;42236;48.058;10.632;2022-10-23T07:35:20;0.90;;;0.80;;
56329;SDS011;42236;48.058;10.632;2022-10-23T07:38:06;1.07;;;0.90;;
56329;SDS011;42236;48.058;10.632;2022-10-23T07:40:52;1.43;;;0.90;;
56329;SDS011;42236;48.058;10.632;2022-10-23T07:43:38;2.60;;;0.70;;
56329;SDS011;42236;48.058;10.632;2022-10-23T07:46:23;0.70;;;0.70;;
56329;SDS011;42236;48.058;10.632;2022-10-23T07:49:09;0.60;;;0.60;;
56329;SDS011;42236;48.058;10.632;2022-10-23T07:51:55;0.70;;;0.50;;
56329;SDS011;42236;48.058;10.632;2022-10-23T07:54:43;1.30;;;0.60;;
56329;SDS011;42236;48.058;10.632;2022-10-23T07:57:28;2.20;;;0.60;;
56329;SDS011;42236;48.058;10.632;2022-10-23T08:00:14;2.00;;;0.50;;
56329;SDS011;42236;48.058;10.632;2022-10-23T08:02:59;1.20;;;0.60;;
56329;SDS011;42236;48.058;10.632;2022-10-23T08:05:45;0.40;;;0.40;;
56329;SDS011;42236;48.058;10.632;2022-10-23T08:08:31;1.60;;;0.90;;
56329;SDS011;42236;48.058;10.632;2022-10-23T08:11:17;0.60;;;0.60;;
56329;SDS011;42236;48.058;10.632;2022-10-23T08:14:09;0.50;;;0.50;;
56329;SDS011;42236;48.058;10.632;2022-10-23T08:16:54;0.70;;;0.50;;
56329;SDS011;42236;48.058;10.632;2022-10-23T08:19:40;4.30;;;0.90;;
56329;SDS011;42236;48.058;10.632;2022-10-23T08:22:30;2.30;;;1.17;;
56329;SDS011;42236;48.058;10.632;2022-10-23T08:25:16;3.97;;;1.03;;
56329;SDS011;42236;48.058;10.632;2022-10-23T08:28:01;3.23;;;0.60;;
56329;SDS011;42236;48.058;10.632;2022-10-23T08:30:47;0.97;;;0.53;;
56329;SDS011;42236;48.058;10.632;2022-10-23T08:33:33;2.33;;;0.30;;
56329;SDS011;42236;48.058;10.632;2022-10-23T08:36:23;0.82;;;0.40;;
56329;SDS011;42236;48.058;10.632;2022-10-23T08:39:10;0.73;;;0.52;;
56329;SDS011;42236;48.058;10.632;2022-10-23T08:41:56;1.95;;;0.47;;
56329;SDS011;42236;48.058;10.632;2022-10-23T08:44:57;1.08;;;0.30;;
56329;SDS011;42236;48.058;10.632;2022-10-23T08:47:48;0.30;;;0.30;;
56329;SDS011;42236;48.058;10.632;2022-10-23T08:50:41;0.20;;;0.20;;
56329;SDS011;42236;48.058;10.632;2022-10-23T08:53:45;0.77;;;0.25;;
56329;SDS011;42236;48.058;10.632;2022-10-23T08:56:37;0.73;;;0.20;;
56329;SDS011;42236;48.058;10.632;2022-10-23T08:59:27;0.82;;;0.20;;
56329;SDS011;42236;48.058;10.632;2022-10-23T09:02:18;0.40;;;0.20;;
56329;SDS011;42236;48.058;10.632;2022-10-23T09:05:16;0.20;;;0.20;;
56329;SDS011;42236;48.058;10.632;2022-10-23T09:14:19;0.30;;;0.20;;
56329;SDS011;42236;48.058;10.632;2022-10-23T09:17:28;0.35;;;0.30;;
56329;SDS011;42236;48.058;10.632;2022-10-23T09:20:27;0.80;;;0.45;;
56329;SDS011;42236;48.058;10.632;2022-10-23T09:23:20;0.10;;;0.10;;
56329;SDS011;42236;48.058;10.632;2022-10-23T09:26:15;0.80;;;0.30;;
56329;SDS011;42236;48.058;10.632;2022-10-23T09:29:05;1.05;;;0.30;;
56329;SDS011;42236;48.058;10.632;2022-10-23T09:32:04;0.25;;;0.25;;
56329;SDS011;42236;48.058;10.632;2022-10-23T09:34:52;1.83;;;0.20;;
56329;SDS011;42236;48.058;10.632;2022-10-23T09:37:44;0.20;;;0.20;;
56329;SDS011;42236;48.058;10.632;2022-10-23T09:40:35;0.68;;;0.30;;
56329;SDS011;42236;48.058;10.632;2022-10-23T09:43:24;0.40;;;0.30;;
56329;SDS011;42236;48.058;10.632;2022-10-23T09:46:11;0.28;;;0.28;;
56329;SDS011;42236;48.058;10.632;2022-10-23T09:48:57;0.30;;;0.30;;
56329;SDS011;42236;48.058;10.632;2022-10-23T09:54:53;0.10;;;0.10;;
56329;SDS011;42236;48.058;10.632;2022-10-23T09:57:41;0.32;;;0.20;;
56329;SDS011;42236;48.058;10.632;2022-10-23T10:00:28;0.47;;;0.22;;
56329;SDS011;42236;48.058;10.632;2022-10-23T10:03:19;0.30;;;0.30;;
56329;SDS011;42236;48.058;10.632;2022-10-23T10:06:17;0.20;;;0.20;;
56329;SDS011;42236;48.058;10.632;2022-10-23T10:09:11;0.50;;;0.30;;
56329;SDS011;42236;48.058;10.632;2022-10-23T10:12:09;0.30;;;0.30;;
56329;SDS011;42236;48.058;10.632;2022-10-23T10:15:10;0.20;;;0.20;;
56329;SDS011;42236;48.058;10.632;2022-10-23T10:23:58;0.20;;;0.20;;
56329;SDS011;42236;48.058;10.632;2022-10-23T10:26:57;0.30;;;0.28;;
56329;SDS011;42236;48.058;10.632;2022-10-23T10:30:02;0.85;;;0.20;;
56329;SDS011;42236;48.058;10.632;2022-10-23T10:35:58;3.05;;;0.20;;
56329;SDS011;42236;48.058;10.632;2022-10-23T10:38:59;0.20;;;0.20;;
56329;SDS011;42236;48.058;10.632;2022-10-23T10:42:03;0.20;;;0.20;;
56329;SDS011;42236;48.058;10.632;2022-10-23T10:45:12;0.15;;;0.15;;
56329;SDS011;42236;48.058;10.632;2022-10-23T10:51:08;0.30;;;0.30;;
56329;SDS011;42236;48.058;10.632;2022-10-23T10:57:33;2.50;;;0.20;;
56329;SDS011;42236;48.058;10.632;2022-10-23T11:00:30;0.30;;;0.17;;
56329;SDS011;42236;48.058;10.632;2022-10-23T11:06:09;0.55;;;0.22;;
56329;SDS011;42236;48.058;10.632;2022-10-23T11:09:01;0.65;;;0.43;;
56329;SDS011;42236;48.058;10.632;2022-10-23T11:11:55;0.30;;;0.30;;
56329;SDS011;42236;48.058;10.632;2022-10-23T11:14:40;0.70;;;0.30;;
56329;SDS011;42236;48.058;10.632;2022-10-23T11:17:35;0.38;;;0.20;;
56329;SDS011;42236;48.058;10.632;2022-10-23T11:20:37;0.30;;;0.30;;
56329;SDS011;42236;48.058;10.632;2022-10-23T11:23:41;0.38;;;0.38;;
56329;SDS011;42236;48.058;10.632;2022-10-23T11:29:54;1.30;;;0.60;;
56329;SDS011;42236;48.058;10.632;2022-10-23T11:38:55;2.90;;;0.30;;
56329;SDS011;42236;48.058;10.632;2022-10-23T11:41:59;0.98;;;0.50;;
56329;SDS011;42236;48.058;10.632;2022-10-23T11:44:50;0.70;;;0.30;;
56329;SDS011;42236;48.058;10.632;2022-10-23T11:47:38;0.30;;;0.30;;
56329;SDS011;42236;48.058;10.632;2022-10-23T11:50:28;0.30;;;0.30;;
56329;SDS011;42236;48.058;10.632;2022-10-23T12:02:31;0.30;;;0.30;;
56329;SDS011;42236;48.058;10.632;2022-10-23T12:05:31;0.73;;;0.70;;
56329;SDS011;42236;48.058;10.632;2022-10-23T12:08:27;0.88;;;0.40;;
56329;SDS011;42236;48.058;10.632;2022-10-23T12:18:14;0.73;;;0.35;;
56329;SDS011;42236;48.058;10.632;2022-10-23T12:21:02;0.30;;;0.30;;
56329;SDS011;42236;48.058;10.632;2022-10-23T12:23:55;0.73;;;0.40;;
56329;SDS011;42236;48.058;10.632;2022-10-23T12:38:31;1.35;;;0.70;;
56329;SDS011;42236;48.058;10.632;2022-10-23T12:41:20;2.05;;;0.63;;
56329;SDS011;42236;48.058;10.632;2022-10-23T12:44:09;2.38;;;0.40;;
56329;SDS011;42236;48.058;10.632;2022-10-23T12:46:57;0.43;;;0.35;;
56329;SDS011;42236;48.058;10.632;2022-10-23T12:49:48;1.50;;;0.50;;
56329;SDS011;42236;48.058;10.632;2022-10-23T12:52:34;0.40;;;0.40;;
56329;SDS011;42236;48.058;10.632;2022-10-23T12:55:24;0.98;;;0.30;;
56329;SDS011;42236;48.058;10.632;2022-10-23T12:58:20;0.98;;;0.32;;
56329;SDS011;42236;48.058;10.632;2022-10-23T13:01:20;3.30;;;0.40;;
56329;SDS011;42236;48.058;10.632;2022-10-23T13:04:29;0.70;;;0.43;;
56329;SDS011;42236;48.058;10.632;2022-10-23T13:07:18;1.85;;;0.30;;
56329;SDS011;42236;48.058;10.632;2022-10-23T13:10:10;1.95;;;0.40;;
56329;SDS011;42236;48.058;10.632;2022-10-23T13:13:02;1.85;;;0.32;;
56329;SDS011;42236;48.058;10.632;2022-10-23T13:15:50;0.40;;;0.40;;
56329;SDS011;42236;48.058;10.632;2022-10-23T13:18:38;0.40;;;0.35;;
56329;SDS011;42236;48.058;10.632;2022-10-23T13:21:26;2.45;;;0.40;;
56329;SDS011;42236;48.058;10.632;2022-10-23T13:24:18;1.48;;;0.40;;
56329;SDS011;42236;48.058;10.632;2022-10-23T13:30:28;2.80;;;0.60;;
56329;SDS011;42236;48.058;10.632;2022-10-23T13:33:26;0.40;;;0.40;;
56329;SDS011;42236;48.058;10.632;2022-10-23T13:41:54;0.80;;;0.40;;
56329;SDS011;42236;48.058;10.632;2022-10-23T13:44:43;1.83;;;0.77;;
56329;SDS011;42236;48.058;10.632;2022-10-23T13:47:28;0.88;;;0.40;;
56329;SDS011;42236;48.058;10.632;2022-10-23T13:50:14;0.50;;;0.40;;
56329;SDS011;42236;48.058;10.632;2022-10-23T13:53:00;0.63;;;0.40;;
56329;SDS011;42236;48.058;10.632;2022-10-23T13:55:47;6.40;;;0.50;;
56329;SDS011;42236;48.058;10.632;2022-10-23T13:58:35;0.93;;;0.43;;
56329;SDS011;42236;48.058;10.632;2022-10-23T14:01:54;0.45;;;0.30;;
56329;SDS011;42236;48.058;10.632;2022-10-23T14:04:34;3.05;;;0.30;;
56329;SDS011;42236;48.058;10.632;2022-10-23T14:07:19;1.90;;;0.40;;
56329;SDS011;42236;48.058;10.632;2022-10-23T14:10:05;0.30;;;0.30;;
56329;SDS011;42236;48.058;10.632;2022-10-23T14:12:51;0.30;;;0.30;;
56329;SDS011;42236;48.058;10.632;2022-10-23T14:15:39;0.30;;;0.30;;
56329;SDS011;42236;48.058;10.632;2022-10-23T14:18:24;0.73;;;0.38;;
56329;SDS011;42236;48.058;10.632;2022-10-23T14:21:11;0.50;;;0.47;;
56329;SDS011;42236;48.058;10.632;2022-10-23T14:23:58;1.25;;;0.40;;
56329;SDS011;42236;48.058;10.632;2022-10-23T14:26:44;0.65;;;0.50;;
56329;SDS011;42236;48.058;10.632;2022-10-23T14:29:29;0.57;;;0.57;;
56329;SDS011;42236;48.058;10.632;2022-10-23T14:32:15;0.40;;;0.40;;
56329;SDS011;42236;48.058;10.632;2022-10-23T14:35:01;0.75;;;0.50;;
56329;SDS011;42236;48.058;10.632;2022-10-23T14:37:48;0.70;;;0.50;;
56329;SDS011;42236;48.058;10.632;2022-10-23T14:40:37;0.40;;;0.40;;
56329;SDS011;42236;48.058;10.632;2022-10-23T14:43:23;0.80;;;0.55;;
56329;SDS011;42236;48.058;10.632;2022-10-23T14:46:10;0.70;;;0.70;;
56329;SDS011;42236;48.058;10.632;2022-10-23T14:48:57;0.88;;;0.32;;
56329;SDS011;42236;48.058;10.632;2022-10-23T14:51:43;0.40;;;0.20;;
56329;SDS011;42236;48.058;10.632;2022-10-23T14:54:28;0.45;;;0.45;;
56329;SDS011;42236;48.058;10.632;2022-10-23T14:57:16;0.50;;;0.40;;
56329;SDS011;42236;48.058;10.632;2022-10-23T15:00:06;0.47;;;0.47;;
56329;SDS011;42236;48.058;10.632;2022-10-23T15:02:52;0.47;;;0.40;;
56329;SDS011;42236;48.058;10.632;2022-10-23T15:05:39;0.35;;;0.35;;
56329;SDS011;42236;48.058;10.632;2022-10-23T15:08:26;3.25;;;0.50;;
56329;SDS011;42236;48.058;10.632;2022-10-23T15:11:12;0.80;;;0.80;;
56329;SDS011;42236;48.058;10.632;2022-10-23T15:13:58;2.70;;;0.60;;
56329;SDS011;42236;48.058;10.632;2022-10-23T15:16:44;0.40;;;0.40;;
56329;SDS011;42236;48.058;10.632;2022-10-23T15:19:30;0.60;;;0.60;;
56329;SDS011;42236;48.058;10.632;2022-10-23T15:22:16;1.38;;;0.40;;
56329;SDS011;42236;48.058;10.632;2022-10-23T15:25:03;0.55;;;0.32;;
56329;SDS011;42236;48.058;10.632;2022-10-23T15:27:50;2.05;;;0.68;;
56329;SDS011;42236;48.058;10.632;2022-10-23T15:30:35;0.43;;;0.40;;
56329;SDS011;42236;48.058;10.632;2022-10-23T15:33:27;0.50;;;0.50;;
56329;SDS011;42236;48.058;10.632;2022-10-23T15:36:13;0.38;;;0.38;;
56329;SDS011;42236;48.058;10.632;2022-10-23T15:38:58;0.50;;;0.50;;
56329;SDS011;42236;48.058;10.632;2022-10-23T15:41:44;0.40;;;0.40;;
56329;SDS011;42236;48.058;10.632;2022-10-23T15:44:30;0.85;;;0.40;;
56329;SDS011;42236;48.058;10.632;2022-10-23T15:47:17;0.57;;;0.40;;
56329;SDS011;42236;48.058;10.632;2022-10-23T15:50:03;1.10;;;0.43;;
56329;SDS011;42236;48.058;10.632;2022-10-23T15:52:49;0.75;;;0.45;;
56329;SDS011;42236;48.058;10.632;2022-10-23T15:55:35;0.40;;;0.40;;
56329;SDS011;42236;48.058;10.632;2022-10-23T15:58:21;2.65;;;1.40;;
56329;SDS011;42236;48.058;10.632;2022-10-23T16:01:06;7.10;;;1.65;;
56329;SDS011;42236;48.058;10.632;2022-10-23T16:03:52;2.15;;;1.20;;
56329;SDS011;42236;48.058;10.632;2022-10-23T16:06:38;2.70;;;1.23;;
56329;SDS011;42236;48.058;10.632;2022-10-23T16:09:24;0.80;;;0.80;;
56329;SDS011;42236;48.058;10.632;2022-10-23T16:12:10;2.60;;;1.10;;
56329;SDS011;42236;48.058;10.632;2022-10-23T16:14:55;2.08;;;1.02;;
56329;SDS011;42236;48.058;10.632;2022-10-23T16:17:41;2.60;;;1.05;;
56329;SDS011;42236;48.058;10.632;2022-10-23T16:20:26;3.80;;;0.90;;
56329;SDS011;42236;48.058;10.632;2022-10-23T16:23:12;0.43;;;0.40;;
56329;SDS011;42236;48.058;10.632;2022-10-23T16:26:02;5.78;;;0.52;;
56329;SDS011;42236;48.058;10.632;2022-10-23T16:28:52;6.68;;;2.42;;
56329;SDS011;42236;48.058;10.632;2022-10-23T16:31:42;7.43;;;2.65;;
56329;SDS011;42236;48.058;10.632;2022-10-23T16:34:27;1.63;;;1.50;;
56329;SDS011;42236;48.058;10.632;2022-10-23T16:37:13;3.03;;;2.40;;
56329;SDS011;42236;48.058;10.632;2022-10-23T16:39:59;2.60;;;2.15;;
56329;SDS011;42236;48.058;10.632;2022-10-23T16:42:46;1.58;;;1.20;;
56329;SDS011;42236;48.058;10.632;2022-10-23T16:45:31;1.02;;;0.98;;
56329;SDS011;42236;48.058;10.632;2022-10-23T16:48:17;1.33;;;0.70;;
56329;SDS011;42236;48.058;10.632;2022-10-23T16:51:06;2.70;;;0.85;;
56329;SDS011;42236;48.058;10.632;2022-10-23T16:53:53;1.88;;;1.05;;
56329;SDS011;42236;48.058;10.632;2022-10-23T16:56:39;1.45;;;1.20;;
56329;SDS011;42236;48.058;10.632;2022-10-23T16:59:25;1.23;;;0.85;;
56329;SDS011;42236;48.058;10.632;2022-10-23T17:02:11;2.55;;;0.57;;
56329;SDS011;42236;48.058;10.632;2022-10-23T17:04:57;2.65;;;0.57;;
56329;SDS011;42236;48.058;10.632;2022-10-23T17:07:42;3.45;;;1.27;;
56329;SDS011;42236;48.058;10.632;2022-10-23T17:10:28;1.65;;;1.05;;
56329;SDS011;42236;48.058;10.632;2022-10-23T17:13:13;2.55;;;2.20;;
56329;SDS011;42236;48.058;10.632;2022-10-23T17:16:43;7.15;;;5.22;;
56329;SDS011;42236;48.058;10.632;2022-10-23T17:19:10;1.92;;;1.50;;
56329;SDS011;42236;48.058;10.632;2022-10-23T17:21:57;10.75;;;7.30;;
56329;SDS011;42236;48.058;10.632;2022-10-23T17:24:43;3.63;;;2.60;;
56329;SDS011;42236;48.058;10.632;2022-10-23T17:27:32;1.55;;;1.38;;
56329;SDS011;42236;48.058;10.632;2022-10-23T17:30:17;2.20;;;1.15;;
56329;SDS011;42236;48.058;10.632;2022-10-23T17:33:03;9.32;;;4.85;;
56329;SDS011;42236;48.058;10.632;2022-10-23T17:35:48;1.95;;;1.20;;
56329;SDS011;42236;48.058;10.632;2022-10-23T17:38:35;2.53;;;2.25;;
56329;SDS011;42236;48.058;10.632;2022-10-23T17:41:22;3.47;;;3.17;;
56329;SDS011;42236;48.058;10.632;2022-10-23T17:44:09;1.45;;;1.33;;
56329;SDS011;42236;48.058;10.632;2022-10-23T17:46:54;3.53;;;1.10;;
56329;SDS011;42236;48.058;10.632;2022-10-23T17:49:40;1.98;;;1.63;;
56329;SDS011;42236;48.058;10.632;2022-10-23T17:52:26;1.70;;;1.60;;
56329;SDS011;42236;48.058;10.632;2022-10-23T17:55:12;7.05;;;3.58;;
56329;SDS011;42236;48.058;10.632;2022-10-23T17:57:57;6.68;;;3.47;;
56329;SDS011;42236;48.058;10.632;2022-10-23T18:00:43;6.38;;;3.55;;
56329;SDS011;42236;48.058;10.632;2022-10-23T18:03:29;2.90;;;2.33;;
56329;SDS011;42236;48.058;10.632;2022-10-23T18:06:15;4.15;;;2.80;;